sensor_id;sensor_type;location;lat;lon;timestamp;temperature;humidity
35804;DHT22;21924;51.934;7.414;2023-03-14T00:00:55;11.00;99.90
35804;DHT22;21924;51.934;7.414;2023-03-14T00:03:39;11.00;99.90
35804;DHT22;21924;51.934;7.414;2023-03-14T00:06:23;10.90;99.90
35804;DHT22;21924;51.934;7.414;2023-03-14T00:09:08;10.90;99.90
35804;DHT22;21924;51.934;7.414;2023-03-14T00:11:55;10.90;99.90
35804;DHT22;21924;51.934;7.414;2023-03-14T00:14:39;10.90;99.90
35804;DHT22;21924;51.934;7.414;2023-03-14T00:17:27;10.80;99.90
35804;DHT22;21924;51.934;7.414;2023-03-14T00:20:11;10.80;99.90
35804;DHT22;21924;51.934;7.414;2023-03-14T00:22:56;10.80;99.90
35804;DHT22;21924;51.934;7.414;2023-03-14T00:25:40;10.80;99.90
35804;DHT22;21924;51.934;7.414;2023-03-14T00:28:24;10.80;99.90
35804;DHT22;21924;51.934;7.414;2023-03-14T00:31:12;10.80;99.90
35804;DHT22;21924;51.934;7.414;2023-03-14T00:33:56;10.70;99.90
35804;DHT22;21924;51.934;7.414;2023-03-14T00:36:40;10.70;99.90
35804;DHT22;21924;51.934;7.414;2023-03-14T00:39:25;10.70;99.90
35804;DHT22;21924;51.934;7.414;2023-03-14T00:42:09;10.70;99.90
35804;DHT22;21924;51.934;7.414;2023-03-14T00:44:53;10.60;99.90
35804;DHT22;21924;51.934;7.414;2023-03-14T00:47:38;10.40;99.90
35804;DHT22;21924;51.934;7.414;2023-03-14T00:50:22;10.40;99.90
35804;DHT22;21924;51.934;7.414;2023-03-14T00:53:06;10.30;99.90
35804;DHT22;21924;51.934;7.414;2023-03-14T00:55:50;10.40;99.90
35804;DHT22;21924;51.934;7.414;2023-03-14T00:58:35;10.40;99.90
35804;DHT22;21924;51.934;7.414;2023-03-14T01:01:19;10.40;99.90
35804;DHT22;21924;51.934;7.414;2023-03-14T01:04:03;10.30;99.90
35804;DHT22;21924;51.934;7.414;2023-03-14T01:06:48;10.40;99.90
35804;DHT22;21924;51.934;7.414;2023-03-14T01:09:32;10.40;99.90
35804;DHT22;21924;51.934;7.414;2023-03-14T01:12:16;10.50;99.90
35804;DHT22;21924;51.934;7.414;2023-03-14T01:15:00;10.60;99.90
35804;DHT22;21924;51.934;7.414;2023-03-14T01:17:45;10.70;99.90
35804;DHT22;21924;51.934;7.414;2023-03-14T01:20:29;10.60;99.90
35804;DHT22;21924;51.934;7.414;2023-03-14T01:23:14;10.60;99.90
35804;DHT22;21924;51.934;7.414;2023-03-14T01:25:59;10.70;99.90
35804;DHT22;21924;51.934;7.414;2023-03-14T01:28:43;10.70;99.90
35804;DHT22;21924;51.934;7.414;2023-03-14T01:31:28;10.70;99.90
35804;DHT22;21924;51.934;7.414;2023-03-14T01:34:12;10.80;99.90
35804;DHT22;21924;51.934;7.414;2023-03-14T01:36:56;10.80;99.90
35804;DHT22;21924;51.934;7.414;2023-03-14T01:39:40;10.80;99.90
35804;DHT22;21924;51.934;7.414;2023-03-14T01:42:25;10.90;99.90
35804;DHT22;21924;51.934;7.414;2023-03-14T01:54:42;10.50;99.90
35804;DHT22;21924;51.934;7.414;2023-03-14T01:57:40;10.40;99.90
35804;DHT22;21924;51.934;7.414;2023-03-14T02:00:26;10.30;99.90
35804;DHT22;21924;51.934;7.414;2023-03-14T02:03:14;10.20;99.90
35804;DHT22;21924;51.934;7.414;2023-03-14T02:06:03;10.20;99.90
35804;DHT22;21924;51.934;7.414;2023-03-14T02:08:50;10.10;99.90
35804;DHT22;21924;51.934;7.414;2023-03-14T02:11:34;10.00;99.90
35804;DHT22;21924;51.934;7.414;2023-03-14T02:14:34;10.00;99.90
35804;DHT22;21924;51.934;7.414;2023-03-14T02:17:19;10.00;99.90
35804;DHT22;21924;51.934;7.414;2023-03-14T02:22:55;9.90;99.90
35804;DHT22;21924;51.934;7.414;2023-03-14T02:25:53;9.80;99.90
35804;DHT22;21924;51.934;7.414;2023-03-14T02:28:39;9.80;99.90
35804;DHT22;21924;51.934;7.414;2023-03-14T02:31:23;9.70;99.90
35804;DHT22;21924;51.934;7.414;2023-03-14T02:34:07;9.60;99.90
35804;DHT22;21924;51.934;7.414;2023-03-14T02:36:52;9.60;99.90
35804;DHT22;21924;51.934;7.414;2023-03-14T02:39:40;9.40;99.90
35804;DHT22;21924;51.934;7.414;2023-03-14T02:42:25;9.50;99.90
35804;DHT22;21924;51.934;7.414;2023-03-14T02:48:02;9.40;99.90
35804;DHT22;21924;51.934;7.414;2023-03-14T02:50:51;9.40;99.90
35804;DHT22;21924;51.934;7.414;2023-03-14T02:53:37;9.40;99.90
35804;DHT22;21924;51.934;7.414;2023-03-14T02:56:22;9.30;99.90
35804;DHT22;21924;51.934;7.414;2023-03-14T02:59:06;9.30;99.90
35804;DHT22;21924;51.934;7.414;2023-03-14T03:01:51;9.20;99.90
35804;DHT22;21924;51.934;7.414;2023-03-14T03:04:35;9.20;99.90
35804;DHT22;21924;51.934;7.414;2023-03-14T03:07:19;9.20;99.90
35804;DHT22;21924;51.934;7.414;2023-03-14T03:10:04;9.10;99.90
35804;DHT22;21924;51.934;7.414;2023-03-14T03:12:48;9.10;99.90
35804;DHT22;21924;51.934;7.414;2023-03-14T03:15:32;9.00;99.90
35804;DHT22;21924;51.934;7.414;2023-03-14T03:18:17;9.00;99.90
35804;DHT22;21924;51.934;7.414;2023-03-14T03:21:03;9.00;99.90
35804;DHT22;21924;51.934;7.414;2023-03-14T03:23:48;9.00;99.90
35804;DHT22;21924;51.934;7.414;2023-03-14T03:26:34;9.00;99.90
35804;DHT22;21924;51.934;7.414;2023-03-14T03:29:18;9.10;99.90
35804;DHT22;21924;51.934;7.414;2023-03-14T03:32:02;9.10;99.90
35804;DHT22;21924;51.934;7.414;2023-03-14T03:34:47;9.20;99.90
35804;DHT22;21924;51.934;7.414;2023-03-14T03:37:32;9.20;99.90
35804;DHT22;21924;51.934;7.414;2023-03-14T03:40:17;9.20;99.90
35804;DHT22;21924;51.934;7.414;2023-03-14T03:43:01;9.20;99.90
35804;DHT22;21924;51.934;7.414;2023-03-14T03:45:48;9.30;99.90
35804;DHT22;21924;51.934;7.414;2023-03-14T03:48:32;9.30;99.90
35804;DHT22;21924;51.934;7.414;2023-03-14T03:51:17;9.30;99.90
35804;DHT22;21924;51.934;7.414;2023-03-14T03:54:01;9.40;99.90
35804;DHT22;21924;51.934;7.414;2023-03-14T03:56:46;9.40;99.90
35804;DHT22;21924;51.934;7.414;2023-03-14T03:59:30;9.40;99.90
35804;DHT22;21924;51.934;7.414;2023-03-14T04:02:14;9.50;99.90
35804;DHT22;21924;51.934;7.414;2023-03-14T04:04:58;9.50;99.90
35804;DHT22;21924;51.934;7.414;2023-03-14T04:07:43;9.50;99.90
35804;DHT22;21924;51.934;7.414;2023-03-14T04:10:28;9.50;99.90
35804;DHT22;21924;51.934;7.414;2023-03-14T04:13:13;9.60;99.90
35804;DHT22;21924;51.934;7.414;2023-03-14T04:15:57;9.60;99.90
35804;DHT22;21924;51.934;7.414;2023-03-14T04:18:41;9.60;99.90
35804;DHT22;21924;51.934;7.414;2023-03-14T04:21:25;9.60;99.90
35804;DHT22;21924;51.934;7.414;2023-03-14T04:24:10;9.60;99.90
35804;DHT22;21924;51.934;7.414;2023-03-14T04:26:54;9.60;99.90
35804;DHT22;21924;51.934;7.414;2023-03-14T04:29:39;9.60;99.90
35804;DHT22;21924;51.934;7.414;2023-03-14T04:32:23;9.60;99.90
35804;DHT22;21924;51.934;7.414;2023-03-14T04:35:07;9.60;99.90
35804;DHT22;21924;51.934;7.414;2023-03-14T04:37:52;9.60;99.90
35804;DHT22;21924;51.934;7.414;2023-03-14T04:40:37;9.60;99.90
35804;DHT22;21924;51.934;7.414;2023-03-14T04:43:22;9.70;99.90
35804;DHT22;21924;51.934;7.414;2023-03-14T04:46:06;9.60;99.90
35804;DHT22;21924;51.934;7.414;2023-03-14T04:48:51;9.60;99.90
35804;DHT22;21924;51.934;7.414;2023-03-14T04:51:35;9.60;99.90
35804;DHT22;21924;51.934;7.414;2023-03-14T04:54:19;9.50;99.90
35804;DHT22;21924;51.934;7.414;2023-03-14T04:57:03;9.50;99.90
35804;DHT22;21924;51.934;7.414;2023-03-14T04:59:48;9.50;99.90
35804;DHT22;21924;51.934;7.414;2023-03-14T05:02:32;9.50;99.90
35804;DHT22;21924;51.934;7.414;2023-03-14T05:05:16;9.60;99.90
35804;DHT22;21924;51.934;7.414;2023-03-14T05:08:01;9.60;99.90
35804;DHT22;21924;51.934;7.414;2023-03-14T05:10:55;9.60;99.90
35804;DHT22;21924;51.934;7.414;2023-03-14T05:13:40;9.50;99.90
35804;DHT22;21924;51.934;7.414;2023-03-14T05:16:24;9.50;99.90
35804;DHT22;21924;51.934;7.414;2023-03-14T05:19:10;9.40;99.90
35804;DHT22;21924;51.934;7.414;2023-03-14T05:21:54;9.40;99.90
35804;DHT22;21924;51.934;7.414;2023-03-14T05:24:39;9.40;99.90
35804;DHT22;21924;51.934;7.414;2023-03-14T05:27:23;9.30;99.90
35804;DHT22;21924;51.934;7.414;2023-03-14T05:30:10;9.30;99.90
35804;DHT22;21924;51.934;7.414;2023-03-14T05:32:54;9.30;99.90
35804;DHT22;21924;51.934;7.414;2023-03-14T05:35:38;9.30;99.90
35804;DHT22;21924;51.934;7.414;2023-03-14T05:38:22;9.30;99.90
35804;DHT22;21924;51.934;7.414;2023-03-14T05:41:07;9.20;99.90
35804;DHT22;21924;51.934;7.414;2023-03-14T05:43:51;9.10;99.90
35804;DHT22;21924;51.934;7.414;2023-03-14T05:46:36;9.00;99.90
35804;DHT22;21924;51.934;7.414;2023-03-14T05:49:20;9.10;99.90
35804;DHT22;21924;51.934;7.414;2023-03-14T05:52:04;9.10;99.90
35804;DHT22;21924;51.934;7.414;2023-03-14T05:54:49;9.20;99.90
35804;DHT22;21924;51.934;7.414;2023-03-14T05:57:33;9.20;99.90
35804;DHT22;21924;51.934;7.414;2023-03-14T06:00:17;9.20;99.90
35804;DHT22;21924;51.934;7.414;2023-03-14T06:03:02;9.20;99.90
35804;DHT22;21924;51.934;7.414;2023-03-14T06:05:46;9.20;99.90
35804;DHT22;21924;51.934;7.414;2023-03-14T06:08:30;9.20;99.90
35804;DHT22;21924;51.934;7.414;2023-03-14T06:11:14;9.10;99.90
35804;DHT22;21924;51.934;7.414;2023-03-14T06:13:59;9.10;99.90
35804;DHT22;21924;51.934;7.414;2023-03-14T06:16:43;9.10;99.90
35804;DHT22;21924;51.934;7.414;2023-03-14T06:19:28;9.00;99.90
35804;DHT22;21924;51.934;7.414;2023-03-14T06:22:12;9.00;99.90
35804;DHT22;21924;51.934;7.414;2023-03-14T06:24:56;9.00;99.90
35804;DHT22;21924;51.934;7.414;2023-03-14T06:27:41;9.00;99.90
35804;DHT22;21924;51.934;7.414;2023-03-14T06:30:25;9.00;99.90
35804;DHT22;21924;51.934;7.414;2023-03-14T06:33:09;9.00;99.90
35804;DHT22;21924;51.934;7.414;2023-03-14T06:35:53;9.00;99.90
35804;DHT22;21924;51.934;7.414;2023-03-14T06:38:38;9.00;99.90
35804;DHT22;21924;51.934;7.414;2023-03-14T06:41:22;9.00;99.90
35804;DHT22;21924;51.934;7.414;2023-03-14T06:44:09;9.00;99.90
35804;DHT22;21924;51.934;7.414;2023-03-14T06:46:54;9.00;99.90
35804;DHT22;21924;51.934;7.414;2023-03-14T06:49:38;9.00;99.90
35804;DHT22;21924;51.934;7.414;2023-03-14T06:52:22;9.10;99.90
35804;DHT22;21924;51.934;7.414;2023-03-14T06:55:07;9.00;99.90
35804;DHT22;21924;51.934;7.414;2023-03-14T06:57:52;9.00;99.90
35804;DHT22;21924;51.934;7.414;2023-03-14T07:00:36;9.00;99.90
35804;DHT22;21924;51.934;7.414;2023-03-14T07:03:21;9.00;99.90
35804;DHT22;21924;51.934;7.414;2023-03-14T07:06:06;9.00;99.90
35804;DHT22;21924;51.934;7.414;2023-03-14T07:08:50;9.00;99.90
35804;DHT22;21924;51.934;7.414;2023-03-14T07:11:35;9.00;99.90
35804;DHT22;21924;51.934;7.414;2023-03-14T07:14:19;9.00;99.90
35804;DHT22;21924;51.934;7.414;2023-03-14T07:17:03;9.00;99.90
35804;DHT22;21924;51.934;7.414;2023-03-14T07:19:48;9.00;99.90
35804;DHT22;21924;51.934;7.414;2023-03-14T07:22:32;9.10;99.90
35804;DHT22;21924;51.934;7.414;2023-03-14T07:25:17;9.10;99.90
35804;DHT22;21924;51.934;7.414;2023-03-14T07:28:01;9.10;99.90
35804;DHT22;21924;51.934;7.414;2023-03-14T07:30:46;9.10;99.90
35804;DHT22;21924;51.934;7.414;2023-03-14T07:33:32;9.10;99.90
35804;DHT22;21924;51.934;7.414;2023-03-14T07:36:16;9.20;99.90
35804;DHT22;21924;51.934;7.414;2023-03-14T07:39:00;9.20;99.90
35804;DHT22;21924;51.934;7.414;2023-03-14T07:41:45;9.30;99.90
35804;DHT22;21924;51.934;7.414;2023-03-14T07:44:29;9.20;99.90
35804;DHT22;21924;51.934;7.414;2023-03-14T07:47:13;9.30;99.90
35804;DHT22;21924;51.934;7.414;2023-03-14T07:49:58;9.30;99.90
35804;DHT22;21924;51.934;7.414;2023-03-14T07:52:42;9.30;99.90
35804;DHT22;21924;51.934;7.414;2023-03-14T07:55:26;9.50;99.90
35804;DHT22;21924;51.934;7.414;2023-03-14T07:58:11;9.50;99.90
35804;DHT22;21924;51.934;7.414;2023-03-14T08:00:55;9.60;99.90
35804;DHT22;21924;51.934;7.414;2023-03-14T08:03:42;9.60;99.90
35804;DHT22;21924;51.934;7.414;2023-03-14T08:06:26;9.70;99.90
35804;DHT22;21924;51.934;7.414;2023-03-14T08:09:10;9.70;99.90
35804;DHT22;21924;51.934;7.414;2023-03-14T08:11:54;9.80;99.90
35804;DHT22;21924;51.934;7.414;2023-03-14T08:14:39;9.90;99.90
35804;DHT22;21924;51.934;7.414;2023-03-14T08:17:23;9.80;99.90
35804;DHT22;21924;51.934;7.414;2023-03-14T08:20:08;9.90;99.90
35804;DHT22;21924;51.934;7.414;2023-03-14T08:22:59;9.90;99.90
35804;DHT22;21924;51.934;7.414;2023-03-14T08:25:43;10.10;99.90
35804;DHT22;21924;51.934;7.414;2023-03-14T08:28:28;10.00;99.90
35804;DHT22;21924;51.934;7.414;2023-03-14T08:31:14;10.00;99.90
35804;DHT22;21924;51.934;7.414;2023-03-14T08:33:59;10.10;99.90
35804;DHT22;21924;51.934;7.414;2023-03-14T08:36:44;10.10;99.90
35804;DHT22;21924;51.934;7.414;2023-03-14T08:39:28;10.10;99.90
35804;DHT22;21924;51.934;7.414;2023-03-14T08:42:13;10.00;99.90
35804;DHT22;21924;51.934;7.414;2023-03-14T08:44:56;10.10;99.90
35804;DHT22;21924;51.934;7.414;2023-03-14T08:47:41;10.10;99.90
35804;DHT22;21924;51.934;7.414;2023-03-14T08:50:26;10.10;99.90
35804;DHT22;21924;51.934;7.414;2023-03-14T08:53:10;10.20;99.90
35804;DHT22;21924;51.934;7.414;2023-03-14T08:55:54;10.20;99.90
35804;DHT22;21924;51.934;7.414;2023-03-14T08:58:39;10.30;99.90
35804;DHT22;21924;51.934;7.414;2023-03-14T09:01:23;10.50;99.90
35804;DHT22;21924;51.934;7.414;2023-03-14T09:04:09;10.50;99.90
35804;DHT22;21924;51.934;7.414;2023-03-14T09:06:54;10.40;99.90
35804;DHT22;21924;51.934;7.414;2023-03-14T09:09:38;10.40;99.90
35804;DHT22;21924;51.934;7.414;2023-03-14T09:12:23;10.50;99.90
35804;DHT22;21924;51.934;7.414;2023-03-14T09:15:08;10.50;99.90
35804;DHT22;21924;51.934;7.414;2023-03-14T09:17:52;10.40;99.90
35804;DHT22;21924;51.934;7.414;2023-03-14T09:20:37;10.40;99.90
35804;DHT22;21924;51.934;7.414;2023-03-14T09:23:23;10.40;99.90
35804;DHT22;21924;51.934;7.414;2023-03-14T09:26:07;10.30;99.90
35804;DHT22;21924;51.934;7.414;2023-03-14T09:28:52;10.30;99.90
35804;DHT22;21924;51.934;7.414;2023-03-14T09:31:36;10.20;99.90
35804;DHT22;21924;51.934;7.414;2023-03-14T09:34:20;10.10;99.90
35804;DHT22;21924;51.934;7.414;2023-03-14T09:37:05;9.60;99.90
35804;DHT22;21924;51.934;7.414;2023-03-14T09:39:49;9.10;99.90
35804;DHT22;21924;51.934;7.414;2023-03-14T09:42:35;8.70;99.90
35804;DHT22;21924;51.934;7.414;2023-03-14T09:48:20;8.30;99.90
35804;DHT22;21924;51.934;7.414;2023-03-14T09:51:11;8.20;99.90
35804;DHT22;21924;51.934;7.414;2023-03-14T09:53:56;8.00;99.90
35804;DHT22;21924;51.934;7.414;2023-03-14T09:56:41;8.00;99.90
35804;DHT22;21924;51.934;7.414;2023-03-14T09:59:27;7.90;99.90
35804;DHT22;21924;51.934;7.414;2023-03-14T10:02:22;7.80;99.90
35804;DHT22;21924;51.934;7.414;2023-03-14T10:05:17;7.80;99.90
35804;DHT22;21924;51.934;7.414;2023-03-14T10:08:02;7.80;99.90
35804;DHT22;21924;51.934;7.414;2023-03-14T10:10:47;7.80;99.90
35804;DHT22;21924;51.934;7.414;2023-03-14T10:13:31;7.70;99.90
35804;DHT22;21924;51.934;7.414;2023-03-14T10:16:15;7.60;99.90
35804;DHT22;21924;51.934;7.414;2023-03-14T10:19:06;7.50;99.90
35804;DHT22;21924;51.934;7.414;2023-03-14T10:21:53;7.30;99.90
35804;DHT22;21924;51.934;7.414;2023-03-14T10:24:37;7.00;99.90
35804;DHT22;21924;51.934;7.414;2023-03-14T10:27:34;6.90;99.90
35804;DHT22;21924;51.934;7.414;2023-03-14T10:30:40;6.80;99.90
35804;DHT22;21924;51.934;7.414;2023-03-14T10:33:32;6.80;99.90
35804;DHT22;21924;51.934;7.414;2023-03-14T10:36:21;6.60;99.90
35804;DHT22;21924;51.934;7.414;2023-03-14T10:39:23;6.40;99.90
35804;DHT22;21924;51.934;7.414;2023-03-14T10:42:19;6.20;99.90
35804;DHT22;21924;51.934;7.414;2023-03-14T10:45:06;6.20;99.90
35804;DHT22;21924;51.934;7.414;2023-03-14T10:47:54;6.10;99.90
35804;DHT22;21924;51.934;7.414;2023-03-14T10:50:57;6.00;99.90
35804;DHT22;21924;51.934;7.414;2023-03-14T10:56:35;5.70;99.90
35804;DHT22;21924;51.934;7.414;2023-03-14T10:59:20;5.60;99.90
35804;DHT22;21924;51.934;7.414;2023-03-14T11:05:31;5.70;99.90
35804;DHT22;21924;51.934;7.414;2023-03-14T11:11:24;5.70;99.90
35804;DHT22;21924;51.934;7.414;2023-03-14T11:17:15;6.00;99.90
35804;DHT22;21924;51.934;7.414;2023-03-14T11:23:18;6.00;99.90
35804;DHT22;21924;51.934;7.414;2023-03-14T11:26:19;6.00;99.90
35804;DHT22;21924;51.934;7.414;2023-03-14T11:32:56;6.00;99.90
35804;DHT22;21924;51.934;7.414;2023-03-14T11:35:57;6.00;99.90
35804;DHT22;21924;51.934;7.414;2023-03-14T11:38:28;6.00;99.90
35804;DHT22;21924;51.934;7.414;2023-03-14T11:44:25;6.00;99.90
35804;DHT22;21924;51.934;7.414;2023-03-14T11:47:15;6.00;99.90
35804;DHT22;21924;51.934;7.414;2023-03-14T11:50:24;6.00;99.90
35804;DHT22;21924;51.934;7.414;2023-03-14T11:53:57;6.00;99.90
35804;DHT22;21924;51.934;7.414;2023-03-14T11:56:31;5.90;99.90
35804;DHT22;21924;51.934;7.414;2023-03-14T11:59:23;6.10;99.90
35804;DHT22;21924;51.934;7.414;2023-03-14T12:05:43;6.30;99.90
35804;DHT22;21924;51.934;7.414;2023-03-14T12:08:38;6.40;99.90
35804;DHT22;21924;51.934;7.414;2023-03-14T12:14:35;6.80;99.90
35804;DHT22;21924;51.934;7.414;2023-03-14T12:17:22;6.90;99.90
35804;DHT22;21924;51.934;7.414;2023-03-14T12:20:22;6.90;99.90
35804;DHT22;21924;51.934;7.414;2023-03-14T12:23:11;6.90;99.90
35804;DHT22;21924;51.934;7.414;2023-03-14T12:34:30;6.20;99.90
35804;DHT22;21924;51.934;7.414;2023-03-14T12:37:36;6.40;99.90
35804;DHT22;21924;51.934;7.414;2023-03-14T12:40:45;6.50;99.90
35804;DHT22;21924;51.934;7.414;2023-03-14T12:43:34;6.50;99.90
35804;DHT22;21924;51.934;7.414;2023-03-14T12:49:08;6.50;99.90
35804;DHT22;21924;51.934;7.414;2023-03-14T12:51:59;6.40;99.90
35804;DHT22;21924;51.934;7.414;2023-03-14T12:54:56;6.40;99.90
35804;DHT22;21924;51.934;7.414;2023-03-14T12:58:05;6.30;99.90
35804;DHT22;21924;51.934;7.414;2023-03-14T13:00:57;6.40;99.90
35804;DHT22;21924;51.934;7.414;2023-03-14T13:04:00;6.50;99.90
35804;DHT22;21924;51.934;7.414;2023-03-14T13:09:36;6.90;99.90
35804;DHT22;21924;51.934;7.414;2023-03-14T13:15:44;7.50;99.90
35804;DHT22;21924;51.934;7.414;2023-03-14T13:18:36;7.60;99.90
35804;DHT22;21924;51.934;7.414;2023-03-14T13:21:24;7.70;99.90
35804;DHT22;21924;51.934;7.414;2023-03-14T13:27:19;7.70;99.90
35804;DHT22;21924;51.934;7.414;2023-03-14T13:30:20;7.50;99.90
35804;DHT22;21924;51.934;7.414;2023-03-14T13:33:05;7.30;99.90
35804;DHT22;21924;51.934;7.414;2023-03-14T13:35:59;7.20;99.90
35804;DHT22;21924;51.934;7.414;2023-03-14T13:38:44;7.30;99.90
35804;DHT22;21924;51.934;7.414;2023-03-14T13:41:28;7.40;99.90
35804;DHT22;21924;51.934;7.414;2023-03-14T13:44:17;7.60;99.90
35804;DHT22;21924;51.934;7.414;2023-03-14T13:47:03;7.60;99.90
35804;DHT22;21924;51.934;7.414;2023-03-14T13:49:49;7.90;99.90
35804;DHT22;21924;51.934;7.414;2023-03-14T13:52:38;7.90;99.90
35804;DHT22;21924;51.934;7.414;2023-03-14T13:55:22;7.80;99.90
35804;DHT22;21924;51.934;7.414;2023-03-14T13:58:32;7.70;99.90
35804;DHT22;21924;51.934;7.414;2023-03-14T14:04:09;7.60;99.90
35804;DHT22;21924;51.934;7.414;2023-03-14T14:06:59;7.50;99.90
35804;DHT22;21924;51.934;7.414;2023-03-14T14:09:47;7.50;99.90
35804;DHT22;21924;51.934;7.414;2023-03-14T14:15:21;7.40;99.90
35804;DHT22;21924;51.934;7.414;2023-03-14T14:18:08;7.50;99.90
35804;DHT22;21924;51.934;7.414;2023-03-14T14:20:54;7.80;99.90
35804;DHT22;21924;51.934;7.414;2023-03-14T14:23:39;8.00;99.90
35804;DHT22;21924;51.934;7.414;2023-03-14T14:26:23;8.10;99.90
35804;DHT22;21924;51.934;7.414;2023-03-14T14:29:23;8.20;99.90
35804;DHT22;21924;51.934;7.414;2023-03-14T14:34:58;8.20;99.90
35804;DHT22;21924;51.934;7.414;2023-03-14T14:37:44;8.00;99.90
35804;DHT22;21924;51.934;7.414;2023-03-14T14:40:30;7.80;99.90
35804;DHT22;21924;51.934;7.414;2023-03-14T14:43:23;7.70;99.90
35804;DHT22;21924;51.934;7.414;2023-03-14T14:46:10;7.50;99.90
35804;DHT22;21924;51.934;7.414;2023-03-14T14:49:03;7.50;99.90
35804;DHT22;21924;51.934;7.414;2023-03-14T14:51:50;7.50;99.90
35804;DHT22;21924;51.934;7.414;2023-03-14T14:54:42;7.70;99.90
35804;DHT22;21924;51.934;7.414;2023-03-14T14:57:38;7.70;99.90
35804;DHT22;21924;51.934;7.414;2023-03-14T15:00:26;7.50;99.90
35804;DHT22;21924;51.934;7.414;2023-03-14T15:03:14;7.40;99.90
35804;DHT22;21924;51.934;7.414;2023-03-14T15:05:59;7.40;99.90
35804;DHT22;21924;51.934;7.414;2023-03-14T15:08:45;7.40;99.90
35804;DHT22;21924;51.934;7.414;2023-03-14T15:11:30;7.30;99.90
35804;DHT22;21924;51.934;7.414;2023-03-14T15:14:14;7.40;99.90
35804;DHT22;21924;51.934;7.414;2023-03-14T15:16:59;7.20;99.90
35804;DHT22;21924;51.934;7.414;2023-03-14T15:19:43;7.00;99.90
35804;DHT22;21924;51.934;7.414;2023-03-14T15:22:27;6.90;99.90
35804;DHT22;21924;51.934;7.414;2023-03-14T15:25:12;6.80;99.90
35804;DHT22;21924;51.934;7.414;2023-03-14T15:27:57;6.70;99.90
35804;DHT22;21924;51.934;7.414;2023-03-14T15:30:41;6.70;99.90
35804;DHT22;21924;51.934;7.414;2023-03-14T15:33:26;6.60;99.90
35804;DHT22;21924;51.934;7.414;2023-03-14T15:39:10;6.80;99.90
35804;DHT22;21924;51.934;7.414;2023-03-14T15:41:54;6.90;99.90
35804;DHT22;21924;51.934;7.414;2023-03-14T15:44:39;7.00;99.90
35804;DHT22;21924;51.934;7.414;2023-03-14T15:47:23;7.20;99.90
35804;DHT22;21924;51.934;7.414;2023-03-14T15:50:09;7.30;99.90
35804;DHT22;21924;51.934;7.414;2023-03-14T15:52:54;7.40;99.90
35804;DHT22;21924;51.934;7.414;2023-03-14T15:55:39;7.20;99.90
35804;DHT22;21924;51.934;7.414;2023-03-14T15:58:23;7.20;99.90
35804;DHT22;21924;51.934;7.414;2023-03-14T16:01:08;7.30;99.90
35804;DHT22;21924;51.934;7.414;2023-03-14T16:03:53;7.40;99.90
35804;DHT22;21924;51.934;7.414;2023-03-14T16:06:37;7.40;99.90
35804;DHT22;21924;51.934;7.414;2023-03-14T16:09:22;7.30;99.90
35804;DHT22;21924;51.934;7.414;2023-03-14T16:12:08;7.20;99.90
35804;DHT22;21924;51.934;7.414;2023-03-14T16:14:52;7.00;99.90
35804;DHT22;21924;51.934;7.414;2023-03-14T16:17:37;6.80;99.90
35804;DHT22;21924;51.934;7.414;2023-03-14T16:20:23;6.70;99.90
35804;DHT22;21924;51.934;7.414;2023-03-14T16:23:08;6.60;99.90
35804;DHT22;21924;51.934;7.414;2023-03-14T16:25:53;6.50;99.90
35804;DHT22;21924;51.934;7.414;2023-03-14T16:28:37;6.40;99.90
35804;DHT22;21924;51.934;7.414;2023-03-14T16:31:22;6.30;99.90
35804;DHT22;21924;51.934;7.414;2023-03-14T16:34:09;6.30;99.90
35804;DHT22;21924;51.934;7.414;2023-03-14T16:36:53;6.10;99.90
35804;DHT22;21924;51.934;7.414;2023-03-14T16:39:38;6.10;99.90
35804;DHT22;21924;51.934;7.414;2023-03-14T16:42:23;6.10;99.90
35804;DHT22;21924;51.934;7.414;2023-03-14T16:45:08;6.10;99.90
35804;DHT22;21924;51.934;7.414;2023-03-14T16:47:52;6.00;99.90
35804;DHT22;21924;51.934;7.414;2023-03-14T16:50:39;6.00;99.90
35804;DHT22;21924;51.934;7.414;2023-03-14T16:53:24;6.00;99.90
35804;DHT22;21924;51.934;7.414;2023-03-14T16:56:10;5.90;99.90
35804;DHT22;21924;51.934;7.414;2023-03-14T16:58:55;5.90;99.90
35804;DHT22;21924;51.934;7.414;2023-03-14T17:01:39;5.80;99.90
35804;DHT22;21924;51.934;7.414;2023-03-14T17:04:25;5.80;99.90
35804;DHT22;21924;51.934;7.414;2023-03-14T17:07:09;5.70;99.90
35804;DHT22;21924;51.934;7.414;2023-03-14T17:09:54;5.50;99.90
35804;DHT22;21924;51.934;7.414;2023-03-14T17:12:38;5.50;99.90
35804;DHT22;21924;51.934;7.414;2023-03-14T17:15:22;5.40;99.90
35804;DHT22;21924;51.934;7.414;2023-03-14T17:18:07;5.40;99.90
35804;DHT22;21924;51.934;7.414;2023-03-14T17:20:51;5.20;99.90
35804;DHT22;21924;51.934;7.414;2023-03-14T17:23:36;5.30;99.90
35804;DHT22;21924;51.934;7.414;2023-03-14T17:26:21;5.20;99.90
35804;DHT22;21924;51.934;7.414;2023-03-14T17:29:05;5.10;99.90
35804;DHT22;21924;51.934;7.414;2023-03-14T17:31:50;5.10;99.90
35804;DHT22;21924;51.934;7.414;2023-03-14T17:34:34;5.00;99.90
35804;DHT22;21924;51.934;7.414;2023-03-14T17:37:18;4.90;99.90
35804;DHT22;21924;51.934;7.414;2023-03-14T17:40:03;5.00;99.90
35804;DHT22;21924;51.934;7.414;2023-03-14T17:42:48;5.00;99.90
35804;DHT22;21924;51.934;7.414;2023-03-14T17:45:32;4.90;99.90
35804;DHT22;21924;51.934;7.414;2023-03-14T17:48:16;4.90;99.90
35804;DHT22;21924;51.934;7.414;2023-03-14T17:51:00;4.90;99.90
35804;DHT22;21924;51.934;7.414;2023-03-14T17:53:45;4.80;99.90
35804;DHT22;21924;51.934;7.414;2023-03-14T17:56:29;4.80;99.90
35804;DHT22;21924;51.934;7.414;2023-03-14T17:59:13;4.80;99.90
35804;DHT22;21924;51.934;7.414;2023-03-14T18:01:58;4.80;99.90
35804;DHT22;21924;51.934;7.414;2023-03-14T18:04:44;4.70;99.90
35804;DHT22;21924;51.934;7.414;2023-03-14T18:07:29;4.70;99.90
35804;DHT22;21924;51.934;7.414;2023-03-14T18:10:15;4.70;99.90
35804;DHT22;21924;51.934;7.414;2023-03-14T18:13:00;4.60;99.90
35804;DHT22;21924;51.934;7.414;2023-03-14T18:15:45;4.60;99.90
35804;DHT22;21924;51.934;7.414;2023-03-14T18:18:29;4.50;99.90
35804;DHT22;21924;51.934;7.414;2023-03-14T18:21:15;4.50;99.90
35804;DHT22;21924;51.934;7.414;2023-03-14T18:24:00;4.50;99.90
35804;DHT22;21924;51.934;7.414;2023-03-14T18:26:46;4.50;99.90
35804;DHT22;21924;51.934;7.414;2023-03-14T18:29:35;4.40;99.90
35804;DHT22;21924;51.934;7.414;2023-03-14T18:32:19;4.40;99.90
35804;DHT22;21924;51.934;7.414;2023-03-14T18:35:04;4.40;99.90
35804;DHT22;21924;51.934;7.414;2023-03-14T18:37:48;4.40;99.90
35804;DHT22;21924;51.934;7.414;2023-03-14T18:40:33;4.40;99.90
35804;DHT22;21924;51.934;7.414;2023-03-14T18:43:17;4.40;99.90
35804;DHT22;21924;51.934;7.414;2023-03-14T18:46:02;4.40;99.90
35804;DHT22;21924;51.934;7.414;2023-03-14T18:48:47;4.40;99.90
35804;DHT22;21924;51.934;7.414;2023-03-14T18:51:39;4.30;99.90
35804;DHT22;21924;51.934;7.414;2023-03-14T18:54:24;4.30;99.90
35804;DHT22;21924;51.934;7.414;2023-03-14T18:57:09;4.30;99.90
35804;DHT22;21924;51.934;7.414;2023-03-14T18:59:54;4.20;99.90
35804;DHT22;21924;51.934;7.414;2023-03-14T19:02:42;4.10;99.90